UDYZ Airport Information

Runway Information
Runway 09 Length 12629 ft width 184 ft
Elevation 2800 ft Threshold 0 ft Heading 90
Runway 27 Length 12629 ft Width 184 ft
Elevation 2838 ft Threshold 0 ft Heading 270
Airport Frequencies
Type APP Name YEREVAN AP Frequency 126 MHZ
Type ATIS Name ATIS Frequency 119.5 MHZ
Type GND Name YEREVAN GN Frequency 119 MHZ
Type TWR Name YEREVAN TW Frequency 128 MHZ
Airport Navaids
Airport Weather Information & NOTAM
ADDS - METARS form results

(0344 UTC 07 April 2020)
Data provider http://aviationweather.gov/metar/data/
 
METAR text: UDYZ 070330Z VRB02KT 6000 BKN040CB 09/07 Q1017 R09/290060 NOSIG
Conditions at: UDYZ (ZVARTNOTS , AM) observed 0330 UTC 07 April 2020
Temperature: 9.0°C (48°F)
Dewpoint: 7.0°C (45°F) [RH = 87%]
Pressure (altimeter): 30.03 inches Hg (1017.0 mb)
Winds: variable direction winds at 2 MPH (2 knots; 1.0 m/s)
Visibility: 4 miles ( 6 km)
Ceiling: 4000 feet AGL
Clouds: broken clouds at 4000 feet AGL
Weather: no significant weather observed at this time

METAR text: UDYZ 070300Z 08003KT 360V170 6000 BKN043 09/07 Q1017 R09/290060 NOSIG
Conditions at: UDYZ (ZVARTNOTS , AM) observed 0300 UTC 07 April 2020
Temperature: 9.0°C (48°F)
Dewpoint: 7.0°C (45°F) [RH = 87%]
Pressure (altimeter): 30.03 inches Hg (1017.0 mb)
Winds: from the E (80 degrees) at 3 MPH (3 knots; 1.5 m/s)
Visibility: 4 miles ( 6 km)
Ceiling: 4300 feet AGL
Clouds: broken clouds at 4300 feet AGL
Weather: no significant weather observed at this time

Forecast for: UDYZ (ZVARTNOTS , AM)
Text: TAF UDYZ 062302Z 0700/0724 VRB06KT 9999 SCT040
Forecast period: 0000 UTC 07 April 2020 to 0000 UTC 08 April 2020
Forecast type: FROM: standard forecast or significant change
Winds: variable direction winds at 7 MPH (6 knots; 3.1 m/s)
Visibility: 6 or more miles 10+ km)
Ceiling: at least 12,000 feet AGL
Clouds: scattered clouds at 4000 feet AGL
Weather: no significant weather forecast for this period
Text: TEMPO 0700/0706 -SHRA BKN030CB
Forecast period: 0000 to 0600 UTC 07 April 2020
Forecast type: TEMPORARY: The following changes expected for less than half the time period
Visibility: missing
Ceiling: 3000 feet AGL
Clouds: broken clouds at 3000 feet AGL
Weather: -SHRA  (light rain showers)